Time;durP1;ratioP1;P1;durP2;ratioP2;P2;SDS_P1;SDS_P2;PMS_P1;PMS_P2;Temp;Humidity;BMP_temperature;BMP_pressure;BME280_temperature;BME280_humidity;BME280_pressure;Samples;Min_cycle;Max_cycle;Signal;HPM_P1;HPM_P2
2020/12/20 00:00:17;;;;;;;38.25;24.00;;;;;;;-2.51;100.00;96389.41;1032322;28;20030;-74
2020/12/20 00:00:49;;;;;;;35.90;22.25;;;;;;;-2.50;100.00;96390.19;1032295;28;20038;-75
2020/12/20 00:01:20;;;;;;;48.47;21.77;;;;;;;-2.58;100.00;96380.75;1025016;28;20275;-74
2020/12/20 00:01:50;;;;;;;33.10;21.35;;;;;;;-2.54;100.00;96386.38;1028774;28;20262;-74
2020/12/20 00:02:23;;;;;;;49.38;22.65;;;;;;;-2.58;100.00;96388.50;1032395;28;20027;-74
2020/12/20 00:02:55;;;;;;;41.63;23.50;;;;;;;-2.66;100.00;96379.03;1033296;28;20025;-73
2020/12/20 00:03:26;;;;;;;45.70;22.98;;;;;;;-2.66;100.00;96389.41;1036353;28;20749;-75
2020/12/20 00:03:58;;;;;;;42.85;23.15;;;;;;;-2.66;100.00;96384.22;1036336;28;20269;-71
2020/12/20 00:04:28;;;;;;;46.20;23.33;;;;;;;-2.69;100.00;96381.22;1032329;28;20030;-73
2020/12/20 00:04:59;;;;;;;39.00;21.55;;;;;;;-2.63;100.00;96385.69;1032843;28;20272;-74
2020/12/20 00:05:30;;;;;;;42.22;23.48;;;;;;;-2.66;100.00;96381.63;1032584;28;20090;-73
2020/12/20 00:06:01;;;;;;;43.40;24.40;;;;;;;-2.66;100.00;96380.84;1036303;28;20082;-73
2020/12/20 00:06:36;;;;;;;44.50;21.20;;;;;;;-2.63;100.00;96391.66;1036456;28;20493;-73
2020/12/20 00:07:07;;;;;;;39.97;23.58;;;;;;;-2.63;100.00;96386.47;1037291;28;20264;-74
2020/12/20 00:07:38;;;;;;;44.53;23.35;;;;;;;-2.65;100.00;96392.81;1040514;28;20257;-73
2020/12/20 00:08:09;;;;;;;42.95;23.27;;;;;;;-2.58;100.00;96392.91;1040540;28;20022;-73
2020/12/20 00:08:40;;;;;;;40.90;23.02;;;;;;;-2.61;100.00;96386.28;1040463;28;20024;-74
2020/12/20 00:09:18;;;;;;;49.58;22.70;;;;;;;-2.65;100.00;96393.63;1040441;28;20263;-71
2020/12/20 00:09:48;;;;;;;41.85;22.50;;;;;;;-2.58;100.00;96390.31;1040666;28;20018;-70
2020/12/20 00:10:20;;;;;;;41.90;22.35;;;;;;;-2.65;100.00;96396.22;1040817;28;20294;-75
2020/12/20 00:10:50;;;;;;;49.85;24.25;;;;;;;-2.67;100.00;96397.38;1040749;28;20078;-72
2020/12/20 00:11:22;;;;;;;39.20;22.55;;;;;;;-2.59;100.00;96392.09;1040754;28;20325;-76
2020/12/20 00:11:56;;;;;;;58.25;24.08;;;;;;;-2.62;100.00;96397.63;1040814;28;20033;-73
2020/12/20 00:12:27;;;;;;;50.08;25.23;;;;;;;-2.64;100.00;96397.81;1032058;28;20620;-69
2020/12/20 00:12:58;;;;;;;42.35;22.95;;;;;;;-2.59;100.00;96399.88;1032031;28;20296;-75
2020/12/20 00:13:28;;;;;;;46.38;24.00;;;;;;;-2.57;100.00;96405.69;1032359;28;20025;-73
2020/12/20 00:13:59;;;;;;;40.85;22.75;;;;;;;-2.56;100.00;96402.09;1033765;28;20037;-75
2020/12/20 00:14:31;;;;;;;37.38;22.88;;;;;;;-2.52;100.00;96398.16;1040333;28;20441;-72
2020/12/20 00:15:02;;;;;;;41.00;23.15;;;;;;;-2.51;100.00;96401.56;1032270;28;20430;-73
2020/12/20 00:15:32;;;;;;;44.83;21.60;;;;;;;-2.54;100.00;96399.31;1032291;28;20770;-72
2020/12/20 00:16:03;;;;;;;50.00;22.40;;;;;;;-2.55;100.00;96408.91;1032684;28;20273;-74
2020/12/20 00:16:34;;;;;;;43.22;22.52;;;;;;;-2.57;100.00;96404.88;1036596;28;20108;-74
2020/12/20 00:17:07;;;;;;;42.28;22.73;;;;;;;-2.56;100.00;96407.28;1040473;28;20021;-71
2020/12/20 00:17:37;;;;;;;52.05;23.90;;;;;;;-2.60;100.00;96406.03;1032204;28;20030;-75
2020/12/20 00:18:08;;;;;;;41.85;22.80;;;;;;;-2.62;100.00;96398.47;1028237;28;20281;-74
2020/12/20 00:18:38;;;;;;;44.13;23.55;;;;;;;-2.63;100.00;96407.19;1032338;28;20018;-73
2020/12/20 00:19:09;;;;;;;43.88;23.48;;;;;;;-2.63;100.00;96407.19;1032264;28;20049;-70
2020/12/20 00:19:41;;;;;;;42.47;23.38;;;;;;;-2.64;100.00;96413.34;1032320;28;20128;-74
2020/12/20 00:20:14;;;;;;;36.22;22.00;;;;;;;-2.57;100.00;96405.69;1033134;28;20026;-74
2020/12/20 00:20:46;;;;;;;38.95;21.90;;;;;;;-2.54;100.00;96413.06;1037011;28;20271;-71
2020/12/20 00:21:17;;;;;;;37.60;22.65;;;;;;;-2.50;100.00;96409.13;1040371;28;20667;-73
2020/12/20 00:21:52;;;;;;;56.10;24.67;;;;;;;-2.47;100.00;96403.59;1032334;28;20273;-73
2020/12/20 00:22:22;;;;;;;40.17;23.35;;;;;;;-2.46;100.00;96407.00;1033143;28;20056;-73
2020/12/20 00:22:53;;;;;;;35.25;21.65;;;;;;;-2.46;100.00;96404.41;1035408;28;20370;-72
2020/12/20 00:23:24;;;;;;;47.25;24.42;;;;;;;-2.42;100.00;96403.06;1023872;29;20031;-74
2020/12/20 00:23:54;;;;;;;37.53;20.20;;;;;;;-2.48;100.00;96408.97;1024313;29;20030;-70
2020/12/20 00:24:25;;;;;;;32.83;20.67;;;;;;;-2.56;100.00;96407.28;1024354;28;20361;-73
2020/12/20 00:24:55;;;;;;;40.63;22.38;;;;;;;-2.56;100.00;96401.28;1024651;28;20030;-74
2020/12/20 00:25:26;;;;;;;35.92;20.98;;;;;;;-2.60;100.00;96408.63;1032337;28;20037;-73
2020/12/20 00:25:57;;;;;;;48.40;21.23;;;;;;;-2.64;100.00;96404.78;1032276;28;20034;-72
2020/12/20 00:26:30;;;;;;;46.95;23.52;;;;;;;-2.66;100.00;96406.75;1032645;28;20261;-74
2020/12/20 00:27:01;;;;;;;37.58;22.02;;;;;;;-2.64;100.00;96404.78;1036208;28;20038;-75
2020/12/20 00:27:32;;;;;;;33.97;21.85;;;;;;;-2.57;100.00;96404.88;1031251;28;20690;-75
2020/12/20 00:28:04;;;;;;;33.22;21.20;;;;;;;-2.55;100.00;96403.72;1028649;28;20258;-73
2020/12/20 00:28:34;;;;;;;34.60;21.92;;;;;;;-2.56;100.00;96409.88;1032758;28;20265;-74
2020/12/20 00:29:04;;;;;;;30.92;20.90;;;;;;;-2.57;100.00;96408.28;1036404;28;20021;-73
2020/12/20 00:29:35;;;;;;;33.95;20.42;;;;;;;-2.62;100.00;96408.81;1036481;28;20410;-73
2020/12/20 00:30:06;;;;;;;34.10;21.92;;;;;;;-2.59;100.00;96405.06;1040583;28;20018;-74
2020/12/20 00:30:36;;;;;;;29.30;20.05;;;;;;;-2.51;100.00;96409.34;1044346;28;20043;-75
2020/12/20 00:31:06;;;;;;;33.15;21.33;;;;;;;-2.60;100.00;96404.25;1044530;28;20021;-74
2020/12/20 00:31:38;;;;;;;34.20;22.15;;;;;;;-2.53;100.00;96411.31;1044524;28;20020;-74
2020/12/20 00:32:10;;;;;;;31.85;20.17;;;;;;;-2.48;100.00;96411.56;1036368;28;20257;-71
2020/12/20 00:32:40;;;;;;;30.50;20.77;;;;;;;-2.50;100.00;96406.53;1032252;28;20018;-72
2020/12/20 00:33:11;;;;;;;27.25;18.73;;;;;;;-2.44;100.00;96412.81;1032250;28;20265;-75
2020/12/20 00:33:41;;;;;;;24.55;18.00;;;;;;;-2.39;100.00;96415.66;1028306;28;20105;-74
2020/12/20 00:34:15;;;;;;;30.23;19.35;;;;;;;-2.45;100.00;96409.41;1028336;28;20031;-76
2020/12/20 00:34:45;;;;;;;29.30;19.63;;;;;;;-2.41;100.00;96412.44;1028990;28;20333;-76
2020/12/20 00:35:16;;;;;;;28.60;19.05;;;;;;;-2.42;100.00;96411.66;1036854;28;20709;-74
2020/12/20 00:35:47;;;;;;;29.73;19.25;;;;;;;-2.43;100.00;96409.25;1045015;28;20020;-74
2020/12/20 00:36:17;;;;;;;26.25;19.08;;;;;;;-2.43;100.00;96406.66;1048710;28;20542;-70
2020/12/20 00:36:48;;;;;;;29.60;18.90;;;;;;;-2.52;100.00;96402.53;1044447;28;20032;-73
2020/12/20 00:37:19;;;;;;;27.33;17.75;;;;;;;-2.59;100.00;96405.06;1040177;28;20025;-72
2020/12/20 00:37:50;;;;;;;32.20;19.13;;;;;;;-2.64;100.00;96405.56;1036304;28;20280;-75
2020/12/20 00:38:20;;;;;;;31.67;17.33;;;;;;;-2.58;100.00;96398.09;1032608;28;20018;-72
2020/12/20 00:38:51;;;;;;;31.88;18.80;;;;;;;-2.62;100.00;96400.22;1036471;28;20025;-71
2020/12/20 00:39:21;;;;;;;31.52;19.40;;;;;;;-2.67;100.00;96400.78;1035709;28;20479;-72
2020/12/20 00:39:53;;;;;;;33.78;19.17;;;;;;;-2.65;100.00;96401.41;1028296;28;20034;-73
2020/12/20 00:40:25;;;;;;;30.65;19.83;;;;;;;-2.58;100.00;96400.66;1028129;28;20019;-72
2020/12/20 00:40:56;;;;;;;32.88;19.92;;;;;;;-2.56;100.00;96403.88;1024659;28;20274;-72
2020/12/20 00:41:28;;;;;;;30.98;20.02;;;;;;;-2.57;100.00;96404.88;1029331;28;20313;-70
2020/12/20 00:42:00;;;;;;;25.92;18.38;;;;;;;-2.50;100.00;96397.97;1032689;28;20333;-73
2020/12/20 00:42:31;;;;;;;26.73;18.10;;;;;;;-2.48;100.00;96406.38;1036045;28;20265;-74
2020/12/20 00:43:01;;;;;;;31.42;20.13;;;;;;;-2.55;100.00;96395.16;1036580;28;20302;-69
2020/12/20 00:43:33;;;;;;;27.17;18.98;;;;;;;-2.46;100.00;96404.41;1044537;28;20017;-74
2020/12/20 00:44:04;;;;;;;27.67;18.35;;;;;;;-2.46;100.00;96401.81;1044845;28;20037;-73
2020/12/20 00:44:34;;;;;;;30.00;17.08;;;;;;;-2.48;100.00;96402.00;1048532;28;20247;-74
2020/12/20 00:45:05;;;;;;;32.17;20.73;;;;;;;-2.48;100.00;96402.00;1048320;28;20024;-73
2020/12/20 00:45:35;;;;;;;29.35;19.05;;;;;;;-2.51;100.00;96398.97;1044294;28;20048;-73
2020/12/20 00:46:06;;;;;;;31.90;19.75;;;;;;;-2.51;100.00;96394.59;1040436;28;20032;-74
2020/12/20 00:46:36;;;;;;;37.05;24.00;;;;;;;-2.47;100.00;96400.22;1040412;28;20359;-74
2020/12/20 00:47:07;;;;;;;28.65;19.00;;;;;;;-2.45;100.00;96400.84;1036215;28;20029;-73
2020/12/20 00:47:38;;;;;;;27.75;18.90;;;;;;;-2.49;100.00;96395.22;1036199;28;20033;-74
2020/12/20 00:48:09;;;;;;;37.17;21.42;;;;;;;-2.45;100.00;96396.47;1032247;28;20042;-75
2020/12/20 00:48:40;;;;;;;27.42;18.58;;;;;;;-2.41;100.00;96400.28;1032541;28;20264;-75
2020/12/20 00:49:10;;;;;;;27.15;18.48;;;;;;;-2.37;100.00;96398.16;1032502;28;20030;-75
2020/12/20 00:49:41;;;;;;;24.23;17.40;;;;;;;-2.33;100.00;96399.38;1036480;28;20072;-75
2020/12/20 00:50:11;;;;;;;27.73;18.42;;;;;;;-2.35;100.00;96403.16;1032172;28;20034;-74
2020/12/20 00:50:42;;;;;;;27.08;18.67;;;;;;;-2.38;100.00;96406.09;1036319;28;20018;-73
2020/12/20 00:51:12;;;;;;;24.83;17.65;;;;;;;-2.31;100.00;96402.59;1040369;28;20087;-71
2020/12/20 00:51:43;;;;;;;25.52;18.67;;;;;;;-2.34;100.00;96412.53;1036376;28;20466;-73
2020/12/20 00:52:13;;;;;;;28.55;15.38;;;;;;;-2.42;100.00;96410.84;1040226;28;20087;-73
2020/12/20 00:52:44;;;;;;;25.67;16.60;;;;;;;-2.41;100.00;96405.47;1036201;28;20076;-75
2020/12/20 00:53:14;;;;;;;27.67;17.67;;;;;;;-2.44;100.00;96410.22;1036394;28;20378;-72
2020/12/20 00:53:45;;;;;;;27.52;17.27;;;;;;;-2.50;100.00;96405.75;1040398;28;20021;-72
2020/12/20 00:54:15;;;;;;;26.83;17.80;;;;;;;-2.50;100.00;96410.94;1036244;28;20674;-69
2020/12/20 00:54:46;;;;;;;26.73;18.88;;;;;;;-2.43;100.00;96414.41;1032062;28;20026;-73
2020/12/20 00:55:16;;;;;;;23.45;15.95;;;;;;;-2.36;100.00;96406.72;1032243;28;20081;-76
2020/12/20 00:55:49;;;;;;;24.70;17.52;;;;;;;-2.32;100.00;96418.31;1032203;28;20026;-74
2020/12/20 00:56:21;;;;;;;25.77;18.30;;;;;;;-2.33;100.00;96412.34;1040369;28;20469;-72
2020/12/20 00:56:51;;;;;;;22.27;16.85;;;;;;;-2.30;100.00;96417.19;1040583;28;20277;-71
2020/12/20 00:57:22;;;;;;;23.08;17.58;;;;;;;-2.34;100.00;96415.13;1040585;28;20017;-72
2020/12/20 00:57:52;;;;;;;22.27;15.77;;;;;;;-2.24;100.00;96415.63;1039996;28;20032;-74
2020/12/20 00:58:23;;;;;;;20.90;15.20;;;;;;;-2.16;100.00;96407.75;1040316;28;20025;-74
2020/12/20 00:58:54;;;;;;;20.90;16.35;;;;;;;-2.12;100.00;96415.97;1040242;28;20113;-74
2020/12/20 00:59:24;;;;;;;22.88;16.30;;;;;;;-2.12;100.00;96415.97;1036245;28;20075;-73
2020/12/20 00:59:55;;;;;;;21.00;15.77;;;;;;;-2.08;100.00;96415.44;1032294;28;20379;-75
2020/12/20 01:00:25;;;;;;;25.67;18.08;;;;;;;-2.07;100.00;96421.41;1032177;28;20459;-71
2020/12/20 01:00:56;;;;;;;30.00;19.75;;;;;;;-2.02;100.00;96419.09;1032131;28;20104;-69
2020/12/20 01:01:26;;;;;;;33.63;20.05;;;;;;;-2.00;100.00;96415.31;1032308;28;20031;-73
2020/12/20 01:01:58;;;;;;;22.50;16.70;;;;;;;-1.98;100.00;96415.13;1040280;28;20403;-73
2020/12/20 01:02:32;;;;;;;24.90;17.45;;;;;;;-2.11;100.00;96417.56;1036628;28;20272;-72
2020/12/20 01:03:03;;;;;;;23.58;17.30;;;;;;;-2.09;100.00;96413.81;1032901;28;20742;-72
2020/12/20 01:03:33;;;;;;;27.08;18.20;;;;;;;-2.00;100.00;96419.72;1031473;28;20297;-73
2020/12/20 01:04:04;;;;;;;24.85;18.10;;;;;;;-2.07;100.00;96417.03;1028136;28;20050;-74
2020/12/20 01:04:36;;;;;;;29.05;19.17;;;;;;;-2.06;100.00;96417.81;1028151;28;20029;-73
2020/12/20 01:05:07;;;;;;;29.73;20.50;;;;;;;-2.09;100.00;96408.63;1028473;28;20011;-72
2020/12/20 01:05:37;;;;;;;22.35;16.40;;;;;;;-1.98;100.00;96414.31;1028849;28;20785;-74
2020/12/20 01:06:08;;;;;;;22.23;16.65;;;;;;;-2.03;100.00;96417.47;1036399;28;20103;-74
2020/12/20 01:06:38;;;;;;;23.67;17.15;;;;;;;-2.00;100.00;96417.91;1040307;28;20401;-74
2020/12/20 01:07:09;;;;;;;20.58;16.23;;;;;;;-1.98;100.00;96409.94;1036163;28;20022;-73
2020/12/20 01:07:40;;;;;;;23.60;17.30;;;;;;;-2.06;100.00;96417.81;1036158;28;20521;-74
2020/12/20 01:08:12;;;;;;;25.08;17.58;;;;;;;-2.17;100.00;96407.94;1036067;28;20033;-72
2020/12/20 01:08:42;;;;;;;24.38;17.42;;;;;;;-2.22;100.00;96408.47;1036601;28;20022;-74
2020/12/20 01:09:16;;;;;;;24.33;17.10;;;;;;;-2.18;100.00;96414.09;1040564;28;20616;-74
2020/12/20 01:09:47;;;;;;;25.08;18.40;;;;;;;-2.23;100.00;96412.84;1040646;28;20027;-75
2020/12/20 01:10:18;;;;;;;28.40;18.60;;;;;;;-2.15;100.00;96408.56;1039882;28;20759;-70
2020/12/20 01:10:48;;;;;;;22.80;17.17;;;;;;;-2.03;100.00;96409.69;1035896;28;20021;-72
2020/12/20 01:11:19;;;;;;;26.63;19.25;;;;;;;-2.05;100.00;96411.66;1027590;28;20027;-73
2020/12/20 01:11:49;;;;;;;27.05;18.80;;;;;;;-2.15;100.00;96409.34;1027946;28;20053;-69
2020/12/20 01:12:20;;;;;;;27.05;18.75;;;;;;;-2.20;100.00;96401.31;1032177;28;20026;-70
2020/12/20 01:12:52;;;;;;;25.15;17.77;;;;;;;-2.12;100.00;96406.41;1031871;28;20090;-74
2020/12/20 01:13:23;;;;;;;25.08;17.90;;;;;;;-2.17;100.00;96406.16;1040282;28;20029;-74
2020/12/20 01:13:53;;;;;;;27.60;18.88;;;;;;;-2.18;100.00;96398.53;1040238;28;20613;-71
2020/12/20 01:14:24;;;;;;;29.80;19.60;;;;;;;-2.22;100.00;96404.09;1036078;28;20032;-74
2020/12/20 01:14:54;;;;;;;25.42;17.75;;;;;;;-2.17;100.00;96400.16;1036086;28;20510;-74
2020/12/20 01:15:29;;;;;;;29.27;18.42;;;;;;;-2.18;100.00;96404.56;1036110;28;20076;-74
2020/12/20 01:16:00;;;;;;;26.42;18.95;;;;;;;-2.11;100.00;96402.81;1037008;28;20034;-74
2020/12/20 01:16:33;;;;;;;28.83;18.20;;;;;;;-2.14;100.00;96408.38;1040578;28;20744;-75
2020/12/20 01:17:05;;;;;;;30.70;18.48;;;;;;;-2.13;100.00;96406.59;1040245;28;20279;-75
2020/12/20 01:17:37;;;;;;;29.63;18.52;;;;;;;-2.18;100.00;96403.72;1040307;28;20328;-73
2020/12/20 01:18:08;;;;;;;33.05;18.95;;;;;;;-2.20;100.00;96407.31;1027950;28;20316;-74
2020/12/20 01:18:38;;;;;;;29.30;18.42;;;;;;;-2.20;100.00;96401.31;1028589;28;20264;-73
2020/12/20 01:19:09;;;;;;;31.13;19.30;;;;;;;-2.27;100.00;96403.84;1032130;28;20534;-75
2020/12/20 01:19:39;;;;;;;34.97;20.20;;;;;;;-2.26;100.00;96407.22;1028445;28;20030;-74
2020/12/20 01:20:11;;;;;;;37.53;20.90;;;;;;;-2.41;100.00;96405.47;1040173;28;20030;-72
2020/12/20 01:20:42;;;;;;;39.47;21.30;;;;;;;-2.46;100.00;96407.00;1040184;28;20030;-75
2020/12/20 01:21:13;;;;;;;32.67;20.92;;;;;;;-2.38;100.00;96408.69;1036291;28;20607;-74
2020/12/20 01:21:44;;;;;;;33.05;19.50;;;;;;;-2.35;100.00;96403.94;1036188;28;20057;-73
2020/12/20 01:22:16;;;;;;;31.27;20.13;;;;;;;-2.32;100.00;96413.16;1036076;28;20260;-72
2020/12/20 01:22:46;;;;;;;38.33;20.23;;;;;;;-2.37;100.00;96410.31;1036576;28;20022;-75
2020/12/20 01:23:16;;;;;;;34.80;20.75;;;;;;;-2.43;100.00;96411.81;1040161;28;20672;-73
2020/12/20 01:23:47;;;;;;;33.80;20.27;;;;;;;-2.38;100.00;96412.06;1040247;28;20044;-75
2020/12/20 01:24:17;;;;;;;35.90;21.15;;;;;;;-2.33;100.00;96417.53;1040203;28;20056;-75
2020/12/20 01:24:48;;;;;;;34.17;20.65;;;;;;;-2.41;100.00;96417.63;1040286;28;20033;-75
2020/12/20 01:25:19;;;;;;;32.78;21.00;;;;;;;-2.42;100.00;96413.41;1040106;28;20021;-70
2020/12/20 01:25:49;;;;;;;32.83;20.63;;;;;;;-2.42;100.00;96421.19;1040539;28;20029;-73
2020/12/20 01:26:23;;;;;;;33.40;20.02;;;;;;;-2.41;100.00;96415.84;1040392;28;20084;-75
2020/12/20 01:26:53;;;;;;;28.35;19.35;;;;;;;-2.34;100.00;96415.13;1040355;28;20359;-72
2020/12/20 01:27:24;;;;;;;30.05;18.95;;;;;;;-2.43;100.00;96411.81;1039119;28;20287;-74
2020/12/20 01:27:54;;;;;;;32.53;19.23;;;;;;;-2.42;100.00;96416.00;1039665;28;20482;-70
2020/12/20 01:28:26;;;;;;;26.02;19.08;;;;;;;-2.39;100.00;96413.06;1036187;28;20064;-73
2020/12/20 01:28:57;;;;;;;28.52;18.45;;;;;;;-2.38;100.00;96409.47;1040260;28;20092;-74
2020/12/20 01:29:28;;;;;;;28.23;18.00;;;;;;;-2.37;100.00;96412.91;1040157;28;20261;-75
2020/12/20 01:29:58;;;;;;;29.27;18.67;;;;;;;-2.43;100.00;96406.66;1040182;28;20269;-74
2020/12/20 01:30:29;;;;;;;31.05;19.80;;;;;;;-2.38;100.00;96409.47;1040518;28;20037;-73
2020/12/20 01:31:00;;;;;;;27.73;18.95;;;;;;;-2.38;100.00;96403.50;1040180;28;20026;-74
2020/12/20 01:31:30;;;;;;;30.13;18.67;;;;;;;-2.40;100.00;96407.09;1036169;28;20425;-75
2020/12/20 01:32:01;;;;;;;26.55;18.58;;;;;;;-2.39;100.00;96402.72;1032056;28;20293;-74
2020/12/20 01:32:31;;;;;;;27.63;18.55;;;;;;;-2.36;100.00;96398.94;1028225;28;20074;-73
2020/12/20 01:33:02;;;;;;;36.13;19.85;;;;;;;-2.34;100.00;96407.34;1020283;29;20350;-73
2020/12/20 01:33:36;;;;;;;30.15;19.27;;;;;;;-2.40;100.00;96404.50;1024133;28;20074;-73
2020/12/20 01:34:06;;;;;;;24.05;16.35;;;;;;;-2.42;100.00;96411.66;1028668;28;20022;-72
2020/12/20 01:34:40;;;;;;;23.05;16.45;;;;;;;-2.36;100.00;96410.09;1032848;28;20340;-73
2020/12/20 01:35:10;;;;;;;25.85;18.23;;;;;;;-2.37;100.00;96418.09;1041161;28;20025;-71
2020/12/20 01:35:41;;;;;;;24.52;17.35;;;;;;;-2.36;100.00;96417.09;1036013;28;20272;-75
2020/12/20 01:36:12;;;;;;;27.35;17.20;;;;;;;-2.37;100.00;96418.88;1031979;28;20022;-73
2020/12/20 01:36:45;;;;;;;21.25;16.50;;;;;;;-2.32;100.00;96418.31;1032044;28;20457;-72
2020/12/20 01:37:16;;;;;;;21.52;16.30;;;;;;;-2.27;100.00;96413.41;1033181;28;20254;-71
2020/12/20 01:37:46;;;;;;;25.75;17.33;;;;;;;-2.38;100.00;96414.66;1040154;28;20268;-74
2020/12/20 01:38:18;;;;;;;25.58;17.63;;;;;;;-2.41;100.00;96415.03;1040499;28;20022;-75
2020/12/20 01:38:48;;;;;;;27.38;17.50;;;;;;;-2.47;100.00;96408.00;1040203;28;20021;-71
2020/12/20 01:39:19;;;;;;;26.23;17.25;;;;;;;-2.55;100.00;96408.91;1040214;28;20338;-73
2020/12/20 01:39:50;;;;;;;27.92;18.27;;;;;;;-2.48;100.00;96412.38;1040120;28;20013;-74
2020/12/20 01:40:22;;;;;;;25.27;17.83;;;;;;;-2.44;100.00;96407.63;1036238;28;20057;-74
2020/12/20 01:40:53;;;;;;;27.83;17.25;;;;;;;-2.44;100.00;96410.22;1040058;28;20121;-72
2020/12/20 01:41:23;;;;;;;25.75;17.23;;;;;;;-2.44;100.00;96402.44;1040241;28;20647;-73
2020/12/20 01:41:54;;;;;;;24.17;17.90;;;;;;;-2.47;100.00;96408.78;1040129;28;20041;-74
2020/12/20 01:42:24;;;;;;;26.27;17.63;;;;;;;-2.47;100.00;96405.41;1040497;28;20009;-75
2020/12/20 01:42:55;;;;;;;22.02;16.08;;;;;;;-2.47;100.00;96408.78;1039713;28;20458;-75
2020/12/20 01:43:28;;;;;;;25.02;15.88;;;;;;;-2.45;100.00;96411.22;1040384;28;20083;-73
2020/12/20 01:43:58;;;;;;;24.55;17.65;;;;;;;-2.51;100.00;96414.53;1040064;28;20805;-75
2020/12/20 01:44:29;;;;;;;23.25;16.00;;;;;;;-2.54;100.00;96414.88;1040163;28;20310;-73
2020/12/20 01:44:59;;;;;;;25.52;16.50;;;;;;;-2.58;100.00;96419.59;1040090;28;20067;-74
2020/12/20 01:45:30;;;;;;;23.67;17.23;;;;;;;-2.61;100.00;96419.97;1040169;28;20021;-72
2020/12/20 01:46:00;;;;;;;24.33;17.02;;;;;;;-2.55;100.00;96416.66;1040429;28;20026;-75
2020/12/20 01:46:31;;;;;;;25.88;17.00;;;;;;;-2.51;100.00;96423.09;1040247;28;20424;-73
2020/12/20 01:47:01;;;;;;;23.27;16.17;;;;;;;-2.48;100.00;96419.34;1040476;28;20419;-74
2020/12/20 01:47:32;;;;;;;22.63;16.50;;;;;;;-2.41;100.00;96421.03;1044274;28;20017;-72
2020/12/20 01:48:03;;;;;;;23.23;16.40;;;;;;;-2.34;100.00;96417.69;1044300;28;20021;-75
2020/12/20 01:48:33;;;;;;;24.35;17.42;;;;;;;-2.34;100.00;96421.09;1040154;28;20248;-73
2020/12/20 01:49:04;;;;;;;25.52;17.15;;;;;;;-2.34;100.00;96412.53;1036002;28;20049;-73
2020/12/20 01:49:34;;;;;;;20.20;15.10;;;;;;;-2.28;100.00;96416.97;1032032;28;20037;-72
2020/12/20 01:50:05;;;;;;;24.27;17.00;;;;;;;-2.28;100.00;96422.16;1036159;28;20037;-73
2020/12/20 01:50:36;;;;;;;25.75;17.15;;;;;;;-2.29;100.00;96421.38;1040286;28;20014;-71
2020/12/20 01:51:07;;;;;;;24.70;16.73;;;;;;;-2.38;100.00;96427.63;1044136;28;20410;-73
2020/12/20 01:51:42;;;;;;;25.73;16.60;;;;;;;-2.40;100.00;96419.22;1043947;28;20029;-73
2020/12/20 01:52:13;;;;;;;20.38;15.77;;;;;;;-2.42;100.00;96419.44;1040090;28;20364;-75
2020/12/20 01:52:45;;;;;;;20.83;15.82;;;;;;;-2.39;100.00;96426.03;1036066;28;20272;-73
2020/12/20 01:53:15;;;;;;;20.23;15.15;;;;;;;-2.32;100.00;96420.91;1031709;28;20031;-74
2020/12/20 01:53:49;;;;;;;27.55;16.83;;;;;;;-2.37;100.00;96421.47;1027939;28;20259;-73
2020/12/20 01:54:20;;;;;;;21.02;15.40;;;;;;;-2.35;100.00;96426.47;1031901;28;20272;-74
2020/12/20 01:54:52;;;;;;;23.73;15.93;;;;;;;-2.32;100.00;96428.69;1020003;29;20259;-72
2020/12/20 01:55:23;;;;;;;18.58;14.98;;;;;;;-2.36;100.00;96428.25;1035910;28;20312;-68
2020/12/20 01:55:58;;;;;;;20.63;15.65;;;;;;;-2.32;100.00;96428.69;1040116;28;20264;-74
2020/12/20 01:56:28;;;;;;;21.55;15.18;;;;;;;-2.32;100.00;96429.53;1036017;28;20029;-73
2020/12/20 01:56:59;;;;;;;20.25;15.40;;;;;;;-2.26;100.00;96427.97;1028528;28;20262;-72
2020/12/20 01:57:29;;;;;;;20.70;15.43;;;;;;;-2.22;100.00;96435.22;1023843;28;20023;-75
2020/12/20 01:58:00;;;;;;;28.50;17.15;;;;;;;-2.13;100.00;96429.94;1023856;28;20491;-74
2020/12/20 01:58:31;;;;;;;25.13;16.85;;;;;;;-2.11;100.00;96422.78;1028066;28;20492;-73
2020/12/20 01:59:02;;;;;;;24.35;17.05;;;;;;;-2.09;100.00;96421.59;1032527;28;20092;-73
2020/12/20 01:59:32;;;;;;;20.02;15.00;;;;;;;-2.13;100.00;96411.78;1040326;28;20307;-75
2020/12/20 02:00:03;;;;;;;20.35;15.65;;;;;;;-2.18;100.00;96416.69;1040399;28;20037;-74
2020/12/20 02:00:34;;;;;;;20.52;15.07;;;;;;;-2.15;100.00;96416.34;1044142;28;20017;-73
2020/12/20 02:01:08;;;;;;;25.60;16.55;;;;;;;-2.36;100.00;96407.50;1048301;28;20309;-71
2020/12/20 02:01:38;;;;;;;22.63;16.73;;;;;;;-2.37;100.00;96405.91;1048324;28;20036;-72
2020/12/20 02:02:09;;;;;;;25.50;17.10;;;;;;;-2.49;100.00;96405.56;1044209;28;20259;-74
2020/12/20 02:02:39;;;;;;;26.30;15.43;;;;;;;-2.47;100.00;96411.38;1043571;28;20036;-73
2020/12/20 02:03:09;;;;;;;22.73;16.25;;;;;;;-2.45;100.00;96409.41;1040090;28;20417;-75
2020/12/20 02:03:40;;;;;;;22.38;15.80;;;;;;;-2.43;100.00;96414.41;1040184;28;20025;-73
2020/12/20 02:04:10;;;;;;;23.27;16.95;;;;;;;-2.41;100.00;96415.03;1044210;28;20114;-72
2020/12/20 02:04:41;;;;;;;23.80;17.15;;;;;;;-2.37;100.00;96418.88;1044193;28;20397;-73
2020/12/20 02:05:12;;;;;;;22.92;17.02;;;;;;;-2.41;100.00;96418.44;1039939;28;20018;-77
2020/12/20 02:05:42;;;;;;;21.02;15.18;;;;;;;-2.34;100.00;96418.50;1035796;28;20061;-73
2020/12/20 02:06:14;;;;;;;24.20;17.40;;;;;;;-2.31;100.00;96415.56;1032057;28;20360;-74
2020/12/20 02:06:44;;;;;;;21.55;16.25;;;;;;;-2.37;100.00;96412.91;1036226;28;20550;-74
2020/12/20 02:07:15;;;;;;;21.80;15.77;;;;;;;-2.43;100.00;96419.59;1032049;28;20280;-73
2020/12/20 02:07:49;;;;;;;26.15;17.15;;;;;;;-2.45;100.00;96417.19;1035981;28;20034;-72
2020/12/20 02:08:19;;;;;;;23.80;16.83;;;;;;;-2.51;100.00;96417.91;1036062;28;20124;-74
2020/12/20 02:08:50;;;;;;;22.20;16.85;;;;;;;-2.50;100.00;96413.53;1036901;28;20839;-73
2020/12/20 02:09:20;;;;;;;25.67;16.63;;;;;;;-2.41;100.00;96415.84;1044142;28;20028;-74
2020/12/20 02:09:50;;;;;;;26.45;18.23;;;;;;;-2.35;100.00;96416.13;1044204;28;20021;-74
2020/12/20 02:10:22;;;;;;;25.70;17.42;;;;;;;-2.36;100.00;96415.28;1044115;28;20028;-74
2020/12/20 02:11:22;;;;;;;24.00;16.83;;;;;;;-2.34;100.00;96415.91;1040281;28;20474;-71
2020/12/20 02:11:52;;;;;;;23.55;15.68;;;;;;;-2.36;100.00;96410.09;1039795;28;20342;-73
2020/12/20 02:12:26;;;;;;;22.40;16.92;;;;;;;-2.44;100.00;96413.63;1040235;28;20083;-74
2020/12/20 02:13:02;;;;;;;24.35;16.33;;;;;;;-2.48;100.00;96403.78;1043553;28;20040;-73
2020/12/20 02:13:32;;;;;;;24.60;16.25;;;;;;;-2.46;100.00;96405.22;1044250;28;20736;-75
2020/12/20 02:14:03;;;;;;;24.95;17.40;;;;;;;-2.53;100.00;96406.94;1044096;28;20806;-71
2020/12/20 02:14:33;;;;;;;21.85;16.45;;;;;;;-2.42;100.00;96403.88;1035870;28;20018;-74
2020/12/20 02:15:04;;;;;;;23.33;16.85;;;;;;;-2.41;100.00;96399.50;1031794;28;20031;-75
2020/12/20 02:15:34;;;;;;;24.90;17.10;;;;;;;-2.36;100.00;96401.53;1027905;28;20077;-74
2020/12/20 02:16:05;;;;;;;26.60;16.50;;;;;;;-2.38;100.00;96399.13;1028131;28;20105;-73
2020/12/20 02:16:35;;;;;;;26.17;17.30;;;;;;;-2.45;100.00;96403.44;1036053;28;20024;-74
2020/12/20 02:17:06;;;;;;;25.10;17.15;;;;;;;-2.38;100.00;96399.13;1036065;28;20991;-72
2020/12/20 02:17:36;;;;;;;24.17;16.05;;;;;;;-2.40;100.00;96403.69;1039995;28;20025;-73
2020/12/20 02:18:07;;;;;;;25.33;17.25;;;;;;;-2.52;100.00;96392.19;1040053;28;20037;-71
2020/12/20 02:18:37;;;;;;;25.98;17.02;;;;;;;-2.52;100.00;96397.34;1035929;28;20021;-73
2020/12/20 02:19:09;;;;;;;25.67;18.02;;;;;;;-2.51;100.00;96404.16;1040125;28;20026;-73
2020/12/20 02:19:42;;;;;;;24.73;16.92;;;;;;;-2.48;100.00;96399.44;1035821;28;20033;-73
2020/12/20 02:20:13;;;;;;;22.50;17.23;;;;;;;-2.43;100.00;96404.84;1028416;28;20270;-76
2020/12/20 02:20:48;;;;;;;26.08;17.55;;;;;;;-2.50;100.00;96400.56;1023934;29;20743;-73
2020/12/20 02:21:21;;;;;;;23.25;17.30;;;;;;;-2.51;100.00;96407.53;1031976;28;20018;-73
2020/12/20 02:21:52;;;;;;;22.63;16.38;;;;;;;-2.50;100.00;96403.16;1027725;28;20426;-72